createdAt,value
2022-11-01T00:00:55.823Z,96379.00
2022-11-01T00:03:28.733Z,96371.41
2022-11-01T00:06:03.083Z,96374.56
2022-11-01T00:08:36.059Z,96367.75
2022-11-01T00:11:13.161Z,96357.13
2022-11-01T00:13:47.806Z,96357.25
2022-11-01T00:16:21.950Z,96365.84
2022-11-01T00:18:55.254Z,96352.88
2022-11-01T00:21:29.521Z,96357.22
2022-11-01T00:24:05.755Z,96354.31
2022-11-01T00:26:38.834Z,96345.91
2022-11-01T00:29:12.812Z,96346.81
2022-11-01T00:31:45.823Z,96342.69
2022-11-01T00:34:19.226Z,96333.16
2022-11-01T00:36:57.699Z,96343.22
2022-11-01T00:39:45.096Z,96349.44
2022-11-01T00:42:19.922Z,96342.56
2022-11-01T00:44:52.880Z,96339.63
2022-11-01T00:47:25.995Z,96343.19
2022-11-01T00:49:59.535Z,96345.63
2022-11-01T00:52:33.809Z,96346.59
2022-11-01T00:55:07.627Z,96342.13
2022-11-01T00:57:40.474Z,96346.56
2022-11-01T01:00:15.518Z,96349.44
2022-11-01T01:02:48.353Z,96346.50
2022-11-01T01:05:21.691Z,96358.56
2022-11-01T01:07:56.136Z,96367.16
2022-11-01T01:10:29.181Z,96384.56
2022-11-01T01:13:02.585Z,96377.41
2022-11-01T01:15:35.803Z,96374.38
2022-11-01T01:18:10.772Z,96367.84
2022-11-01T01:20:44.069Z,96365.94
2022-11-01T01:23:18.432Z,96369.78
2022-11-01T01:25:51.273Z,96374.72
2022-11-01T01:28:24.433Z,96363.53
2022-11-01T01:31:01.782Z,96358.81
2022-11-01T01:33:39.563Z,96353.38
2022-11-01T01:36:20.498Z,96358.66
2022-11-01T01:38:56.105Z,96354.72
2022-11-01T01:41:48.401Z,96351.97
2022-11-01T01:44:39.710Z,96352.66
2022-11-01T01:47:21.061Z,96348.72
2022-11-01T01:50:04.206Z,96340.28
2022-11-01T01:52:44.136Z,96349.34
2022-11-01T01:55:25.458Z,96352.72
2022-11-01T01:58:00.184Z,96360.22
2022-11-01T02:00:33.006Z,96359.75
2022-11-01T02:03:07.877Z,96351.63
2022-11-01T02:05:46.371Z,96359.69
2022-11-01T02:08:27.771Z,96355.31
2022-11-01T02:11:06.161Z,96357.22
2022-11-01T02:13:39.610Z,96361.38
2022-11-01T02:16:32.679Z,96367.94
2022-11-01T02:19:25.536Z,96362.94
2022-11-01T02:22:05.947Z,96371.00
2022-11-01T02:25:21.599Z,96370.22
2022-11-01T02:28:17.044Z,96371.34
2022-11-01T02:31:04.439Z,96382.06
2022-11-01T02:33:44.874Z,96377.38
2022-11-01T02:36:23.802Z,96384.97
2022-11-01T02:39:01.402Z,96381.50
2022-11-01T02:41:38.926Z,96380.75
2022-11-01T02:44:18.226Z,96384.19
2022-11-01T02:47:01.656Z,96384.97
2022-11-01T02:49:40.084Z,96381.63
2022-11-01T02:55:29.901Z,96379.06
2022-11-01T02:58:06.510Z,96374.88
2022-11-01T03:00:39.487Z,96374.56
2022-11-01T03:03:17.854Z,96370.88
2022-11-01T03:06:03.945Z,96380.56
2022-11-01T03:08:41.354Z,96378.00
2022-11-01T03:14:00.707Z,96397.84
2022-11-01T03:16:37.055Z,96426.03
2022-11-01T03:19:23.867Z,96430.47
2022-11-01T03:22:01.833Z,96432.22
2022-11-01T03:24:39.336Z,96444.72
2022-11-01T03:27:18.575Z,96459.78
2022-11-01T03:29:57.190Z,96464.63
2022-11-01T03:32:35.842Z,96470.88
2022-11-01T03:35:11.615Z,96475.13
2022-11-01T03:37:47.929Z,96475.56
2022-11-01T03:40:22.405Z,96471.31
2022-11-01T03:42:59.091Z,96475.56
2022-11-01T03:45:36.244Z,96474.78
2022-11-01T03:48:09.548Z,96479.72
2022-11-01T03:50:48.783Z,96480.50
2022-11-01T03:53:24.076Z,96487.75
2022-11-01T03:55:57.516Z,96487.31
2022-11-01T03:58:41.859Z,96500.75
2022-11-01T04:01:17.459Z,96497.72
2022-11-01T04:03:50.320Z,96492.34
2022-11-01T04:06:23.177Z,96493.13
2022-11-01T04:08:57.462Z,96492.03
2022-11-01T04:11:30.432Z,96493.91
2022-11-01T04:14:20.938Z,96492.81
2022-11-01T04:17:11.209Z,96498.63
2022-11-01T04:20:12.851Z,96500.19
2022-11-01T04:22:45.724Z,96495.22
2022-11-01T04:25:20.042Z,96511.47
2022-11-01T04:27:52.987Z,96501.50
2022-11-01T04:30:26.231Z,96505.03
2022-11-01T04:32:59.828Z,96502.81
2022-11-01T04:35:33.178Z,96507.50
2022-11-01T04:38:06.727Z,96508.38
2022-11-01T04:40:41.610Z,96522.78
2022-11-01T04:43:14.689Z,96521.31
2022-11-01T04:45:55.237Z,96530.00
2022-11-01T04:48:28.345Z,96535.81
2022-11-01T04:51:03.068Z,96521.34
2022-11-01T04:53:36.342Z,96521.09
2022-11-01T04:56:13.486Z,96523.63
2022-11-01T04:58:46.908Z,96523.69
2022-11-01T05:01:22.881Z,96528.91
2022-11-01T05:03:56.400Z,96528.66
2022-11-01T05:06:29.534Z,96537.34
2022-11-01T05:09:02.499Z,96536.84
2022-11-01T05:11:36.876Z,96552.13
2022-11-01T05:14:10.443Z,96548.47
2022-11-01T05:16:43.454Z,96555.69
2022-11-01T05:19:17.030Z,96560.53
2022-11-01T05:21:49.835Z,96565.38
2022-11-01T05:24:23.118Z,96571.78
2022-11-01T05:26:57.540Z,96576.19
2022-11-01T05:29:33.659Z,96579.81
2022-11-01T05:32:06.551Z,96581.56
2022-11-01T05:34:39.462Z,96580.94
2022-11-01T05:37:12.414Z,96591.06
2022-11-01T05:39:45.328Z,96584.59
2022-11-01T05:42:19.488Z,96590.53
2022-11-01T05:44:53.073Z,96588.34
2022-11-01T05:47:25.838Z,96600.00
2022-11-01T05:49:58.744Z,96601.63
2022-11-01T05:52:31.512Z,96607.88
2022-11-01T05:55:04.516Z,96614.84
2022-11-01T05:57:39.361Z,96614.09
2022-11-01T06:00:13.662Z,96619.94
2022-11-01T06:02:46.593Z,96627.69
2022-11-01T06:05:19.561Z,96621.94
2022-11-01T06:07:52.631Z,96623.13
2022-11-01T06:10:25.828Z,96628.50
2022-11-01T06:13:00.747Z,96622.78
2022-11-01T06:15:37.127Z,96634.00
2022-11-01T06:18:12.986Z,96629.38
2022-11-01T06:20:45.984Z,96627.13
2022-11-01T06:23:19.798Z,96625.19
2022-11-01T06:25:52.698Z,96631.00
2022-11-01T06:28:27.043Z,96639.16
2022-11-01T06:31:02.427Z,96635.34
2022-11-01T06:33:35.464Z,96634.22
2022-11-01T06:36:08.550Z,96640.44
2022-11-01T06:38:41.314Z,96636.63
2022-11-01T06:41:14.502Z,96646.69
2022-11-01T06:43:50.680Z,96640.19
2022-11-01T06:46:23.859Z,96655.22
2022-11-01T06:48:56.632Z,96655.63
2022-11-01T06:51:30.377Z,96654.50
2022-11-01T06:54:03.235Z,96657.63
2022-11-01T06:56:36.357Z,96663.88
2022-11-01T06:59:10.735Z,96673.16
2022-11-01T07:01:44.229Z,96671.69
2022-11-01T07:04:17.312Z,96677.16
2022-11-01T07:06:52.531Z,96678.78
2022-11-01T07:09:26.548Z,96683.09
2022-11-01T07:11:59.510Z,96678.56
2022-11-01T07:14:34.144Z,96679.03
2022-11-01T07:17:06.953Z,96689.13
2022-11-01T07:19:39.731Z,96695.41
2022-11-01T07:22:14.706Z,96701.19
2022-11-01T07:24:47.490Z,96710.16
2022-11-01T07:27:20.766Z,96689.38
2022-11-01T07:29:56.221Z,96689.41
2022-11-01T07:32:29.177Z,96682.88
2022-11-01T07:35:02.030Z,96682.97
2022-11-01T07:37:36.291Z,96692.66
2022-11-01T07:40:09.896Z,96698.94
2022-11-01T07:42:43.618Z,96700.88
2022-11-01T07:45:18.100Z,96699.84
2022-11-01T07:47:52.117Z,96693.28
2022-11-01T07:50:24.969Z,96699.16
2022-11-01T07:53:02.380Z,96702.38
2022-11-01T07:55:35.698Z,96703.56
2022-11-01T07:58:09.403Z,96692.03
2022-11-01T08:00:45.282Z,96677.44
2022-11-01T08:03:20.361Z,96680.19
2022-11-01T08:05:53.168Z,96683.75
2022-11-01T08:08:25.985Z,96679.16
2022-11-01T08:11:01.437Z,96677.31
2022-11-01T08:13:34.335Z,96671.97
2022-11-01T08:16:09.592Z,96667.78
2022-11-01T08:18:42.406Z,96675.19
2022-11-01T08:21:18.802Z,96670.63
2022-11-01T08:23:51.796Z,96670.66
2022-11-01T08:26:24.594Z,96675.00
2022-11-01T08:28:57.444Z,96671.19
2022-11-01T08:31:31.868Z,96670.13
2022-11-01T08:34:04.720Z,96672.88
2022-11-01T08:36:37.545Z,96682.25
2022-11-01T08:39:10.943Z,96683.44
2022-11-01T08:41:43.831Z,96690.84
2022-11-01T08:44:17.968Z,96685.16
2022-11-01T08:46:55.696Z,96690.66
2022-11-01T08:49:29.100Z,96685.69
2022-11-01T08:52:01.957Z,96688.88
2022-11-01T08:54:35.439Z,96692.09
2022-11-01T08:57:08.588Z,96690.59
2022-11-01T08:59:41.540Z,96698.81
2022-11-01T09:02:16.472Z,96706.66
2022-11-01T09:04:49.619Z,96709.44
2022-11-01T09:07:22.688Z,96696.78
2022-11-01T09:09:55.630Z,96696.88
2022-11-01T09:12:28.895Z,96706.22
2022-11-01T09:15:02.057Z,96707.44
2022-11-01T09:17:42.817Z,96712.19
2022-11-01T09:20:16.300Z,96709.50
2022-11-01T09:22:52.487Z,96709.19
2022-11-01T09:25:25.424Z,96707.25
2022-11-01T09:27:58.805Z,96707.69
2022-11-01T09:30:31.737Z,96714.34
2022-11-01T09:33:07.502Z,96713.63
2022-11-01T09:35:40.544Z,96714.44
2022-11-01T09:38:13.565Z,96720.31
2022-11-01T09:40:51.218Z,96721.88
2022-11-01T09:43:26.769Z,96724.28
2022-11-01T09:46:01.991Z,96720.78
2022-11-01T09:48:37.886Z,96729.00
2022-11-01T09:51:16.959Z,96727.53
2022-11-01T09:53:51.108Z,96718.63
2022-11-01T09:56:30.523Z,96719.88
2022-11-01T09:59:15.567Z,96726.84
2022-11-01T10:01:58.993Z,96729.59
2022-11-01T10:05:10.299Z,96726.94
2022-11-01T10:08:16.218Z,96733.16
2022-11-01T10:11:00.653Z,96728.19
2022-11-01T10:13:45.077Z,96719.28
2022-11-01T10:16:27.240Z,96728.97
2022-11-01T10:19:04.807Z,96728.22
2022-11-01T10:21:44.114Z,96729.38
2022-11-01T10:24:23.705Z,96730.94
2022-11-01T10:27:05.587Z,96728.97
2022-11-01T10:29:46.072Z,96732.47
2022-11-01T10:32:30.997Z,96738.66
2022-11-01T10:35:07.825Z,96733.25
2022-11-01T10:37:57.348Z,96737.91
2022-11-01T10:40:44.637Z,96736.78
2022-11-01T10:43:24.365Z,96737.19
2022-11-01T10:46:00.461Z,96742.19
2022-11-01T10:48:38.187Z,96736.03
2022-11-01T10:51:13.802Z,96732.19
2022-11-01T10:53:50.044Z,96729.50
2022-11-01T10:56:28.382Z,96738.06
2022-11-01T10:59:05.595Z,96740.03
2022-11-01T11:01:42.755Z,96732.75
2022-11-01T11:04:18.439Z,96735.88
2022-11-01T11:06:52.525Z,96735.53
2022-11-01T11:09:30.288Z,96739.47
2022-11-01T11:12:08.193Z,96719.31
2022-11-01T11:14:45.313Z,96724.00
2022-11-01T11:17:25.213Z,96721.31
2022-11-01T11:20:04.560Z,96721.34
2022-11-01T11:22:40.184Z,96724.06
2022-11-01T11:25:17.532Z,96719.00
2022-11-01T11:27:53.082Z,96724.84
2022-11-01T11:30:32.685Z,96726.44
2022-11-01T11:33:05.771Z,96722.94
2022-11-01T11:35:40.540Z,96726.06
2022-11-01T11:38:15.625Z,96724.13
2022-11-01T11:40:50.020Z,96723.34
2022-11-01T11:43:25.712Z,96715.59
2022-11-01T11:46:07.956Z,96729.19
2022-11-01T11:48:48.570Z,96724.50
2022-11-01T11:51:22.624Z,96717.53
2022-11-01T11:54:16.517Z,96712.09
2022-11-01T11:56:52.859Z,96714.03
2022-11-01T11:59:29.565Z,96717.53
2022-11-01T12:02:09.698Z,96714.44
2022-11-01T12:04:53.119Z,96715.22
2022-11-01T12:07:29.458Z,96710.56
2022-11-01T12:10:03.759Z,96705.91
2022-11-01T12:12:40.717Z,96705.50
2022-11-01T12:15:28.771Z,96700.44
2022-11-01T12:18:15.871Z,96693.06
2022-11-01T12:20:52.255Z,96702.38
2022-11-01T12:23:32.970Z,96694.22
2022-11-01T12:26:12.548Z,96691.13
2022-11-01T12:28:55.141Z,96692.31
2022-11-01T12:31:31.755Z,96702.41
2022-11-01T12:34:12.719Z,96696.97
2022-11-01T12:36:50.021Z,96692.69
2022-11-01T12:39:37.838Z,96695.03
2022-11-01T12:42:19.205Z,96698.91
2022-11-01T12:44:57.217Z,96697.34
2022-11-01T12:47:37.174Z,96695.78
2022-11-01T12:50:20.179Z,96692.28
2022-11-01T12:52:58.604Z,96691.13
2022-11-01T12:55:35.204Z,96688.81
2022-11-01T12:58:13.253Z,96692.69
2022-11-01T13:01:07.762Z,96694.22
2022-11-01T13:03:49.460Z,96682.56
2022-11-01T13:06:34.758Z,96682.53
2022-11-01T13:09:16.844Z,96682.53
2022-11-01T13:11:55.449Z,96685.59
2022-11-01T13:14:40.229Z,96680.56
2022-11-01T13:17:22.574Z,96685.19
2022-11-01T13:20:05.533Z,96692.19
2022-11-01T13:22:47.440Z,96687.53
2022-11-01T13:25:25.604Z,96685.56
2022-11-01T13:28:05.154Z,96681.31
2022-11-01T13:30:40.746Z,96677.81
2022-11-01T13:33:22.662Z,96682.84
2022-11-01T13:36:02.172Z,96677.00
2022-11-01T13:38:45.256Z,96680.09
2022-11-01T13:41:25.839Z,96677.38
2022-11-01T13:44:05.544Z,96678.91
2022-11-01T13:47:00.209Z,96673.06
2022-11-01T13:50:14.597Z,96674.59
2022-11-01T13:52:52.224Z,96683.50
2022-11-01T13:55:34.840Z,96679.16
2022-11-01T13:58:08.308Z,96690.38
2022-11-01T14:00:44.625Z,96688.38
2022-11-01T14:03:20.420Z,96686.00
2022-11-01T14:06:31.588Z,96687.91
2022-11-01T14:09:43.348Z,96689.78
2022-11-01T14:12:36.170Z,96687.41
2022-11-01T14:15:22.152Z,96686.59
2022-11-01T14:18:13.247Z,96687.69
2022-11-01T14:20:51.759Z,96687.28
2022-11-01T14:23:59.534Z,96684.06
2022-11-01T14:27:09.064Z,96677.41
2022-11-01T14:29:43.354Z,96678.50
2022-11-01T14:32:16.643Z,96681.53
2022-11-01T14:34:57.690Z,96675.31
2022-11-01T14:37:38.637Z,96681.84
2022-11-01T14:40:29.325Z,96681.38
2022-11-01T14:43:07.316Z,96680.53
2022-11-01T14:45:45.193Z,96691.72
2022-11-01T14:48:23.864Z,96693.97
2022-11-01T14:51:04.068Z,96693.53
2022-11-01T14:53:40.226Z,96698.84
2022-11-01T14:56:16.573Z,96691.41
2022-11-01T14:58:50.025Z,96687.81
2022-11-01T15:01:25.304Z,96689.31
2022-11-01T15:04:01.237Z,96691.16
2022-11-01T15:06:34.067Z,96678.28
2022-11-01T15:09:07.340Z,96692.94
2022-11-01T15:11:40.398Z,96697.88
2022-11-01T15:14:20.844Z,96693.22
2022-11-01T15:16:55.368Z,96697.78
2022-11-01T15:19:33.849Z,96700.06
2022-11-01T15:22:07.138Z,96698.81
2022-11-01T15:24:39.998Z,96692.63
2022-11-01T15:27:16.323Z,96703.44
2022-11-01T15:29:50.118Z,96694.56
2022-11-01T15:32:26.897Z,96689.56
2022-11-01T15:35:03.600Z,96694.59
2022-11-01T15:37:50.122Z,96703.53
2022-11-01T15:40:29.555Z,96707.47
2022-11-01T15:43:06.720Z,96704.00
2022-11-01T15:45:40.324Z,96707.91
2022-11-01T15:48:21.003Z,96712.59
2022-11-01T15:50:58.388Z,96714.50
2022-11-01T15:53:35.418Z,96713.72
2022-11-01T15:56:12.827Z,96715.28
2022-11-01T15:58:51.893Z,96712.16
2022-11-01T16:01:25.720Z,96717.53
2022-11-01T16:04:04.115Z,96712.09
2022-11-01T16:06:44.394Z,96719.06
2022-11-01T16:09:26.988Z,96708.91
2022-11-01T16:12:02.727Z,96719.63
2022-11-01T16:14:38.840Z,96717.59
2022-11-01T16:17:24.645Z,96714.03
2022-11-01T16:19:59.358Z,96720.06
2022-11-01T16:22:38.560Z,96727.69
2022-11-01T16:25:20.587Z,96728.72
2022-11-01T16:28:00.305Z,96720.47
2022-11-01T16:30:37.001Z,96723.41
2022-11-01T16:33:17.306Z,96720.97
2022-11-01T16:35:52.714Z,96728.25
2022-11-01T16:38:29.801Z,96738.16
2022-11-01T16:41:04.610Z,96730.69
2022-11-01T16:43:37.592Z,96741.38
2022-11-01T16:46:10.864Z,96747.09
2022-11-01T16:48:51.836Z,96753.19
2022-11-01T16:51:28.584Z,96758.13
2022-11-01T16:54:02.259Z,96768.06
2022-11-01T16:56:40.865Z,96768.00
2022-11-01T16:59:27.854Z,96773.69
2022-11-01T17:02:02.160Z,96777.38
2022-11-01T17:04:35.218Z,96779.91
2022-11-01T17:07:11.722Z,96780.56
2022-11-01T17:09:45.163Z,96777.66
2022-11-01T17:12:18.380Z,96788.22
2022-11-01T17:14:52.858Z,96793.81
2022-11-01T17:17:27.507Z,96791.31
2022-11-01T17:20:04.236Z,96799.19
2022-11-01T17:22:38.491Z,96797.44
2022-11-01T17:25:15.981Z,96809.19
2022-11-01T17:27:51.205Z,96813.19
2022-11-01T17:30:24.376Z,96825.03
2022-11-01T17:32:57.211Z,96830.28
2022-11-01T17:35:30.124Z,96837.13
2022-11-01T17:38:05.152Z,96843.66
2022-11-01T17:40:38.658Z,96843.66
2022-11-01T17:43:17.070Z,96837.56
2022-11-01T17:45:50.805Z,96838.81
2022-11-01T17:48:23.984Z,96846.97
2022-11-01T17:51:01.344Z,96844.44
2022-11-01T17:53:38.211Z,96846.88
2022-11-01T17:56:11.378Z,96842.34
2022-11-01T17:58:49.509Z,96837.81
2022-11-01T18:01:25.017Z,96840.97
2022-11-01T18:03:58.084Z,96834.78
2022-11-01T18:06:30.963Z,96826.25
2022-11-01T18:09:19.112Z,96824.25
2022-11-01T18:12:03.050Z,96831.84
2022-11-01T18:14:49.868Z,96828.63
2022-11-01T18:17:41.453Z,96826.09
2022-11-01T18:20:27.608Z,96834.34
2022-11-01T18:23:04.825Z,96834.13
2022-11-01T18:25:42.821Z,96836.66
2022-11-01T18:28:18.508Z,96837.59
2022-11-01T18:30:56.808Z,96833.94
2022-11-01T18:33:38.108Z,96837.69
2022-11-01T18:36:19.151Z,96833.34
2022-11-01T18:38:58.835Z,96838.53
2022-11-01T18:41:33.180Z,96843.81
2022-11-01T18:44:11.857Z,96841.38
2022-11-01T18:46:54.141Z,96848.22
2022-11-01T18:49:28.648Z,96850.75
2022-11-01T18:52:02.101Z,96835.63
2022-11-01T18:54:35.504Z,96842.34
2022-11-01T18:57:16.362Z,96846.88
2022-11-01T18:59:50.345Z,96844.00
2022-11-01T19:02:27.139Z,96842.66
2022-11-01T19:05:11.776Z,96848.63
2022-11-01T19:08:09.499Z,96851.41
2022-11-01T19:10:39.402Z,96850.41
2022-11-01T19:13:17.232Z,96847.16
2022-11-01T19:15:54.081Z,96843.47
2022-11-01T19:18:27.774Z,96847.19
2022-11-01T19:21:01.759Z,96839.81
2022-11-01T19:23:38.804Z,96839.00
2022-11-01T19:26:19.881Z,96836.66
2022-11-01T19:28:55.794Z,96846.66
2022-11-01T19:31:32.073Z,96847.41
2022-11-01T19:34:07.211Z,96845.09
2022-11-01T19:36:43.534Z,96840.91
2022-11-01T19:39:23.380Z,96839.47
2022-11-01T19:42:00.132Z,96841.38
2022-11-01T19:44:34.570Z,96844.84
2022-11-01T19:47:32.110Z,96832.97
2022-11-01T19:50:16.871Z,96841.81
2022-11-01T19:52:52.328Z,96841.38
2022-11-01T19:55:38.443Z,96850.69
2022-11-01T19:58:25.012Z,96842.59
2022-11-01T20:01:27.781Z,96841.03
2022-11-01T20:04:04.041Z,96851.47
2022-11-01T20:06:48.660Z,96850.78
2022-11-01T20:09:24.287Z,96857.84
2022-11-01T20:11:57.346Z,96845.25
2022-11-01T20:14:30.210Z,96853.91
2022-11-01T20:17:03.675Z,96856.78
2022-11-01T20:19:38.134Z,96833.50
2022-11-01T20:22:11.045Z,96844.00
2022-11-01T20:24:44.001Z,96844.47
2022-11-01T20:27:18.382Z,96849.16
2022-11-01T20:29:51.350Z,96842.97
2022-11-01T20:32:24.257Z,96847.94
2022-11-01T20:34:59.275Z,96842.09
2022-11-01T20:37:32.274Z,96853.53
2022-11-01T20:40:06.089Z,96857.72
2022-11-01T20:42:39.134Z,96853.78
2022-11-01T20:45:12.465Z,96847.63
2022-11-01T20:47:46.489Z,96861.53
2022-11-01T20:50:21.146Z,96857.34
2022-11-01T20:52:54.095Z,96865.09
2022-11-01T20:55:27.999Z,96859.84
2022-11-01T20:58:01.203Z,96848.03
2022-11-01T21:00:34.418Z,96841.97
2022-11-01T21:03:15.269Z,96857.09
2022-11-01T21:05:51.072Z,96852.50
2022-11-01T21:08:25.503Z,96856.31
2022-11-01T21:11:02.189Z,96853.19
2022-11-01T21:13:38.885Z,96853.53
2022-11-01T21:16:24.378Z,96854.97
2022-11-01T21:19:02.381Z,96846.03
2022-11-01T21:21:45.486Z,96847.81
2022-11-01T21:24:39.339Z,96853.47
2022-11-01T21:27:26.634Z,96849.72
2022-11-01T21:30:07.270Z,96855.69
2022-11-01T21:32:44.122Z,96854.59
2022-11-01T21:35:41.372Z,96857.84
2022-11-01T21:38:35.507Z,96862.13
2022-11-01T21:41:24.489Z,96861.78
2022-11-01T21:43:57.843Z,96859.56
2022-11-01T21:46:36.967Z,96860.00
2022-11-01T21:49:27.720Z,96867.38
2022-11-01T21:52:02.719Z,96866.69
2022-11-01T21:54:39.580Z,96868.38
2022-11-01T21:57:13.832Z,96863.09
2022-11-01T21:59:47.214Z,96859.06
2022-11-01T22:02:20.252Z,96863.47
2022-11-01T22:04:54.847Z,96866.84
2022-11-01T22:07:27.919Z,96868.28
2022-11-01T22:10:02.273Z,96864.81
2022-11-01T22:12:35.144Z,96862.78
2022-11-01T22:15:09.230Z,96871.97
2022-11-01T22:17:42.491Z,96872.75
2022-11-01T22:20:15.959Z,96872.31
2022-11-01T22:22:48.876Z,96876.09
2022-11-01T22:25:23.131Z,96869.63
2022-11-01T22:27:56.106Z,96878.78
2022-11-01T22:30:29.399Z,96873.75
2022-11-01T22:33:02.480Z,96878.31
2022-11-01T22:35:35.587Z,96876.75
2022-11-01T22:38:17.541Z,96876.75
2022-11-01T22:43:31.029Z,96881.56
2022-11-01T22:46:04.184Z,96882.22
2022-11-01T22:48:37.001Z,96887.81
2022-11-01T22:51:17.728Z,96890.81
2022-11-01T22:53:55.067Z,96890.56
2022-11-01T22:56:33.738Z,96898.47
2022-11-01T22:59:12.075Z,96904.06
2022-11-01T23:01:45.292Z,96896.19
2022-11-01T23:04:22.615Z,96901.88
2022-11-01T23:06:55.426Z,96906.34
2022-11-01T23:09:28.229Z,96903.97
2022-11-01T23:12:20.379Z,96901.31
2022-11-01T23:14:55.544Z,96901.19
2022-11-01T23:17:34.005Z,96903.53
2022-11-01T23:20:10.940Z,96904.84
2022-11-01T23:22:44.071Z,96910.84
2022-11-01T23:25:17.163Z,96913.72
2022-11-01T23:27:51.539Z,96922.78
2022-11-01T23:30:24.514Z,96920.59
2022-11-01T23:32:59.608Z,96927.56
2022-11-01T23:35:32.524Z,96938.19
2022-11-01T23:38:16.415Z,96942.63
2022-11-01T23:40:54.570Z,96933.31
2022-11-01T23:43:34.944Z,96940.13
2022-11-01T23:46:09.227Z,96944.22
2022-11-01T23:48:44.403Z,96939.19
2022-11-01T23:51:21.184Z,96947.38
2022-11-01T23:53:55.998Z,96936.97
2022-11-01T23:56:29.214Z,96951.19
2022-11-01T23:59:05.669Z,96943.44
